createdAt,value
2019-04-23T00:01:40.655Z,12.00
2019-04-23T00:04:07.218Z,12.06
2019-04-23T00:06:43.398Z,12.05
2019-04-23T00:09:12.621Z,12.06
2019-04-23T00:11:41.632Z,11.99
2019-04-23T00:14:11.539Z,11.89
2019-04-23T00:16:45.958Z,11.78
2019-04-23T00:19:16.904Z,11.88
2019-04-23T00:22:13.633Z,12.01
2019-04-23T00:25:12.159Z,11.93
2019-04-23T00:29:53.034Z,11.63
2019-04-23T00:32:23.355Z,11.63
2019-04-23T00:34:55.790Z,11.74
2019-04-23T00:37:28.396Z,11.82
2019-04-23T00:39:52.937Z,11.77
2019-04-23T00:47:33.296Z,11.93
2019-04-23T00:50:07.659Z,11.89
2019-04-23T00:52:30.529Z,11.73
2019-04-23T00:55:05.431Z,11.97
2019-04-23T01:00:12.897Z,12.15
2019-04-23T01:02:37.521Z,11.94
2019-04-23T01:07:38.141Z,11.95
2019-04-23T01:10:15.143Z,12.04
2019-04-23T01:12:46.424Z,12.03
2019-04-23T01:15:18.917Z,12.01
2019-04-23T01:17:56.038Z,12.01
2019-04-23T01:20:36.579Z,11.98
2019-04-23T01:22:46.435Z,12.13
2019-04-23T01:25:40.738Z,12.14
2019-04-23T01:28:27.350Z,12.14
2019-04-23T01:31:07.758Z,12.14
2019-04-23T01:33:36.256Z,12.08
2019-04-23T01:36:21.916Z,11.91
2019-04-23T01:41:09.258Z,11.96
2019-04-23T01:43:36.501Z,11.91
2019-04-23T01:46:07.580Z,11.93
2019-04-23T01:48:40.772Z,11.90
2019-04-23T01:51:01.416Z,11.88
2019-04-23T01:53:38.939Z,11.68
2019-04-23T01:56:13.955Z,11.76
2019-04-23T01:59:00.241Z,11.82
2019-04-23T02:01:12.942Z,11.73
2019-04-23T02:03:49.978Z,11.79
2019-04-23T02:08:48.712Z,11.78
2019-04-23T02:11:31.763Z,11.75
2019-04-23T02:13:55.138Z,11.69
2019-04-23T02:16:29.065Z,11.58
2019-04-23T02:19:11.483Z,11.70
2019-04-23T02:21:31.981Z,11.71
2019-04-23T02:23:57.355Z,11.66
2019-04-23T02:26:33.932Z,11.67
2019-04-23T02:29:14.575Z,11.52
2019-04-23T02:31:51.050Z,11.51
2019-04-23T02:34:23.592Z,11.56
2019-04-23T02:36:51.130Z,11.57
2019-04-23T02:39:11.729Z,11.41
2019-04-23T02:41:55.984Z,11.35
2019-04-23T02:46:56.790Z,11.24
2019-04-23T02:51:54.659Z,11.13
2019-04-23T02:56:50.978Z,11.19
2019-04-23T02:59:42.729Z,11.06
2019-04-23T03:02:12.103Z,11.00
2019-04-23T03:04:34.151Z,11.11
2019-04-23T03:07:03.364Z,11.23
2019-04-23T03:09:37.026Z,11.21
2019-04-23T03:12:12.045Z,11.17
2019-04-23T03:14:34.940Z,11.09
2019-04-23T03:17:03.436Z,11.07
2019-04-23T03:19:47.953Z,11.06
2019-04-23T03:22:15.775Z,11.10
2019-04-23T03:25:12.583Z,11.05
2019-04-23T03:30:16.142Z,10.96
2019-04-23T03:34:10.992Z,10.99
2019-04-23T03:35:19.459Z,10.89
2019-04-23T03:40:21.222Z,10.80
2019-04-23T03:50:23.672Z,10.75
2019-04-23T03:52:44.674Z,10.78
2019-04-23T03:55:27.970Z,10.77
2019-04-23T04:05:42.517Z,10.55
2019-04-23T04:08:06.796Z,10.59
2019-04-23T04:13:04.096Z,10.59
2019-04-23T04:25:39.280Z,10.44
2019-04-23T04:28:12.190Z,10.41
2019-04-23T04:35:58.384Z,10.41
2019-04-23T04:43:31.672Z,10.43
2019-04-23T04:48:35.365Z,10.49
2019-04-23T04:51:24.255Z,10.52
2019-04-23T04:56:20.924Z,10.50
2019-04-23T05:01:08.571Z,10.57
2019-04-23T05:03:33.786Z,10.71
2019-04-23T05:06:15.694Z,10.69
2019-04-23T05:08:48.263Z,10.77
2019-04-23T05:13:45.495Z,10.82
2019-04-23T05:18:54.647Z,11.08
2019-04-23T05:23:50.460Z,11.09
2019-04-23T05:26:26.508Z,11.12
2019-04-23T05:29:01.214Z,11.01
2019-04-23T05:39:15.809Z,11.12
2019-04-23T05:44:02.509Z,11.16
2019-04-23T05:49:04.526Z,11.19
2019-04-23T05:51:36.359Z,11.16
2019-04-23T05:53:58.235Z,11.33
2019-04-23T05:56:32.445Z,11.28
2019-04-23T05:59:08.762Z,11.37
2019-04-23T06:06:45.182Z,11.44
2019-04-23T06:14:18.986Z,11.50
2019-04-23T06:16:59.014Z,11.48
2019-04-23T06:22:13.908Z,11.61
2019-04-23T06:24:22.150Z,11.64
2019-04-23T06:26:54.261Z,11.71
2019-04-23T06:31:50.712Z,11.83
2019-04-23T06:34:27.203Z,11.92
2019-04-23T06:36:51.216Z,11.87
2019-04-23T06:39:26.002Z,11.89
2019-04-23T06:41:55.106Z,11.97
2019-04-23T06:59:37.494Z,12.19
2019-04-23T07:04:47.146Z,12.37
2019-04-23T07:07:34.757Z,12.48
2019-04-23T07:09:42.450Z,12.44
2019-04-23T07:12:20.164Z,12.40
2019-04-23T07:17:25.083Z,12.52
2019-04-23T07:22:18.918Z,12.70
2019-04-23T07:24:47.180Z,12.74
2019-04-23T07:27:19.212Z,12.78
2019-04-23T07:29:56.598Z,12.83
2019-04-23T07:32:15.132Z,12.86
2019-04-23T07:35:04.204Z,12.94
2019-04-23T07:37:29.690Z,12.93
2019-04-23T07:40:23.090Z,13.03
2019-04-23T07:45:24.344Z,13.16
2019-04-23T07:48:10.969Z,13.30
2019-04-23T07:53:16.977Z,13.44
2019-04-23T07:58:19.432Z,13.52
2019-04-23T08:00:45.585Z,13.57
2019-04-23T08:05:44.030Z,13.69
2019-04-23T08:08:30.326Z,13.79
2019-04-23T08:11:25.774Z,13.85
2019-04-23T08:13:39.846Z,13.90
2019-04-23T08:16:18.384Z,13.97
2019-04-23T08:18:45.169Z,13.97
2019-04-23T08:21:10.672Z,14.04
2019-04-23T08:24:03.217Z,14.06
2019-04-23T08:29:27.811Z,14.29
2019-04-23T08:31:55.573Z,14.24
2019-04-23T08:34:29.981Z,14.41
2019-04-23T08:37:00.495Z,14.43
2019-04-23T08:39:30.932Z,14.39
2019-04-23T08:45:10.674Z,14.58
2019-04-23T08:47:32.042Z,14.68
2019-04-23T08:50:02.308Z,14.69
2019-04-23T08:52:33.530Z,14.81
2019-04-23T08:57:35.074Z,14.99
2019-04-23T09:00:09.067Z,15.04
2019-04-23T09:02:46.118Z,15.01
2019-04-23T09:07:58.096Z,15.10
2019-04-23T09:12:45.730Z,15.16
2019-04-23T09:15:26.442Z,15.29
2019-04-23T09:17:57.692Z,15.41
2019-04-23T09:22:48.797Z,15.50
2019-04-23T09:25:30.915Z,15.53
2019-04-23T09:27:52.903Z,15.64
2019-04-23T09:33:00.796Z,15.76
2019-04-23T09:36:01.478Z,15.84
2019-04-23T09:38:55.966Z,15.89
2019-04-23T09:41:27.393Z,15.86
2019-04-23T09:47:24.417Z,15.91
2019-04-23T09:49:56.902Z,15.92
2019-04-23T09:52:30.952Z,16.04
2019-04-23T09:54:57.622Z,16.16
2019-04-23T09:57:24.388Z,16.31
2019-04-23T09:59:58.277Z,16.35
2019-04-23T10:02:20.141Z,16.24
2019-04-23T10:04:47.616Z,16.30
2019-04-23T10:07:16.207Z,16.35
2019-04-23T10:09:34.219Z,16.41
2019-04-23T10:12:05.130Z,16.29
2019-04-23T10:14:34.618Z,16.40
2019-04-23T10:17:04.357Z,16.43
2019-04-23T10:19:35.066Z,16.41
2019-04-23T10:22:05.078Z,16.48
2019-04-23T10:24:35.079Z,16.64
2019-04-23T10:27:06.100Z,16.73
2019-04-23T10:29:38.483Z,16.73
2019-04-23T10:32:09.459Z,16.76
2019-04-23T10:34:56.290Z,16.78
2019-04-23T10:37:11.406Z,16.87
2019-04-23T10:39:43.529Z,16.90
2019-04-23T10:42:12.256Z,16.99
2019-04-23T10:45:22.634Z,17.01
2019-04-23T10:48:29.398Z,17.08
2019-04-23T10:51:15.737Z,17.23
2019-04-23T10:53:56.462Z,17.13
2019-04-23T10:56:37.720Z,17.14
2019-04-23T10:58:54.890Z,17.18
2019-04-23T11:01:31.466Z,17.25
2019-04-23T11:04:33.734Z,17.32
2019-04-23T11:06:41.056Z,17.39
2019-04-23T11:09:15.670Z,17.41
2019-04-23T11:11:45.613Z,17.51
2019-04-23T11:14:19.526Z,17.63
2019-04-23T11:19:25.536Z,17.75
2019-04-23T11:21:56.198Z,17.82
2019-04-23T11:24:36.557Z,17.81
2019-04-23T11:29:35.721Z,17.80
2019-04-23T11:32:34.973Z,17.91
2019-04-23T11:34:47.968Z,18.02
2019-04-23T11:39:30.972Z,18.05
2019-04-23T11:42:05.186Z,18.11
2019-04-23T11:44:34.321Z,18.14
2019-04-23T11:47:32.744Z,18.21
2019-04-23T11:51:00.573Z,18.42
2019-04-23T11:52:09.786Z,18.49
2019-04-23T11:54:38.960Z,18.41
2019-04-23T11:59:53.493Z,18.52
2019-04-23T12:08:01.072Z,18.87
2019-04-23T12:10:54.407Z,18.88
2019-04-23T12:13:20.730Z,18.95
2019-04-23T12:15:47.896Z,18.96
2019-04-23T12:18:24.093Z,19.11
2019-04-23T12:20:51.039Z,19.57
2019-04-23T12:26:08.331Z,20.16
2019-04-23T12:30:57.187Z,21.12
2019-04-23T12:36:37.722Z,23.62
2019-04-23T12:39:04.343Z,25.21
2019-04-23T12:41:36.063Z,25.84
2019-04-23T12:44:11.040Z,26.30
2019-04-23T12:46:45.724Z,27.12
2019-04-23T12:49:40.609Z,26.86
2019-04-23T12:51:52.195Z,27.13
2019-04-23T12:54:32.326Z,26.89
2019-04-23T12:57:04.801Z,27.55
2019-04-23T12:59:27.136Z,28.68
2019-04-23T13:04:32.238Z,28.82
2019-04-23T13:07:09.197Z,28.02
2019-04-23T13:09:52.566Z,27.91
2019-04-23T13:12:30.733Z,27.12
2019-04-23T13:15:05.303Z,27.06
2019-04-23T13:17:30.021Z,27.04
2019-04-23T13:20:03.753Z,26.91
2019-04-23T13:22:37.071Z,27.45
2019-04-23T13:25:11.028Z,28.01
2019-04-23T13:28:01.939Z,28.23
2019-04-23T13:30:34.048Z,28.63
2019-04-23T13:32:59.066Z,28.21
2019-04-23T13:53:33.536Z,28.48
2019-04-23T13:55:44.466Z,28.97
2019-04-23T13:58:37.381Z,28.19
2019-04-23T14:03:38.141Z,28.81
2019-04-23T14:11:43.337Z,27.69
2019-04-23T14:14:14.483Z,28.69
2019-04-23T14:16:34.408Z,28.03
2019-04-23T14:19:12.977Z,28.73
2019-04-23T14:26:39.973Z,28.82
2019-04-23T14:29:19.109Z,28.23
2019-04-23T14:31:45.643Z,28.97
2019-04-23T14:34:17.710Z,28.72
2019-04-23T14:37:00.988Z,28.64
2019-04-23T14:39:24.021Z,28.41
2019-04-23T14:42:01.964Z,28.40
2019-04-23T14:44:53.105Z,28.26
2019-04-23T14:47:16.247Z,29.29
2019-04-23T14:50:21.095Z,29.54
2019-04-23T14:52:30.240Z,29.58
2019-04-23T15:00:09.770Z,28.60
2019-04-23T15:02:44.626Z,28.71
2019-04-23T15:05:17.317Z,28.41
2019-04-23T15:07:46.552Z,28.22
2019-04-23T15:10:29.560Z,27.38
2019-04-23T15:12:53.959Z,28.56
2019-04-23T15:15:19.578Z,27.54
2019-04-23T15:17:55.654Z,28.25
2019-04-23T15:20:33.618Z,28.11
2019-04-23T15:26:15.841Z,28.12
2019-04-23T15:28:07.028Z,27.89
2019-04-23T15:30:38.653Z,28.10
2019-04-23T15:33:19.914Z,26.98
2019-04-23T15:35:55.678Z,27.27
2019-04-23T15:38:37.686Z,27.36
2019-04-23T15:40:51.200Z,27.05
2019-04-23T15:43:22.861Z,27.53
2019-04-23T15:45:57.351Z,27.14
2019-04-23T15:48:22.432Z,26.62
2019-04-23T15:51:06.281Z,25.14
2019-04-23T15:53:24.633Z,23.77
2019-04-23T15:56:11.832Z,23.21
2019-04-23T15:58:49.581Z,22.43
2019-04-23T16:03:25.138Z,21.82
2019-04-23T16:05:57.331Z,21.03
2019-04-23T16:09:04.994Z,20.99
2019-04-23T16:16:38.751Z,19.98
2019-04-23T16:24:19.534Z,19.86
2019-04-23T16:26:55.977Z,19.71
2019-04-23T16:32:14.740Z,19.58
2019-04-23T16:34:34.008Z,19.51
2019-04-23T16:37:16.480Z,19.43
2019-04-23T16:39:48.313Z,19.11
2019-04-23T16:42:26.729Z,19.40
2019-04-23T16:47:24.502Z,18.78
2019-04-23T16:52:26.703Z,18.90
2019-04-23T16:55:08.998Z,18.95
2019-04-23T16:57:43.756Z,18.68
2019-04-23T17:03:07.835Z,18.75
2019-04-23T17:07:53.734Z,18.79
2019-04-23T17:12:52.976Z,18.56
2019-04-23T17:15:27.901Z,18.76
2019-04-23T17:17:56.201Z,18.48
2019-04-23T17:20:34.756Z,18.31
2019-04-23T17:23:05.540Z,18.15
2019-04-23T17:25:26.451Z,18.06
2019-04-23T17:28:20.141Z,18.26
2019-04-23T17:36:13.206Z,18.24
2019-04-23T17:38:42.694Z,18.01
2019-04-23T17:41:17.767Z,18.02
2019-04-23T17:43:54.571Z,18.04
2019-04-23T17:46:22.290Z,17.89
2019-04-23T17:48:49.387Z,17.62
2019-04-23T17:51:19.788Z,17.97
2019-04-23T17:54:04.943Z,18.04
2019-04-23T17:56:35.958Z,18.02
2019-04-23T17:59:04.325Z,17.92
2019-04-23T18:04:14.109Z,17.63
2019-04-23T18:06:45.041Z,17.83
2019-04-23T18:11:44.592Z,17.47
2019-04-23T18:14:11.782Z,17.34
2019-04-23T18:16:56.931Z,17.48
2019-04-23T18:19:17.965Z,17.19
2019-04-23T18:27:31.008Z,16.95
2019-04-23T18:30:15.606Z,16.96
2019-04-23T18:33:42.756Z,16.99
2019-04-23T18:38:22.946Z,16.70
2019-04-23T18:41:00.842Z,16.62
2019-04-23T18:43:29.570Z,16.69
2019-04-23T18:45:54.124Z,16.67
2019-04-23T18:53:44.896Z,16.70
2019-04-23T19:01:15.206Z,16.47
2019-04-23T19:06:44.062Z,16.53
2019-04-23T19:15:23.580Z,16.37
2019-04-23T19:17:56.606Z,16.23
2019-04-23T19:20:37.899Z,16.33
2019-04-23T19:23:03.131Z,16.46
2019-04-23T19:28:30.704Z,16.39
2019-04-23T19:30:58.122Z,16.03
2019-04-23T19:33:32.801Z,16.08
2019-04-23T19:36:13.725Z,15.99
2019-04-23T19:38:28.805Z,15.90
2019-04-23T19:40:56.761Z,15.91
2019-04-23T19:43:37.143Z,15.80
2019-04-23T19:46:25.589Z,15.57
2019-04-23T19:48:42.485Z,15.77
2019-04-23T19:53:54.975Z,15.51
2019-04-23T19:58:56.824Z,15.42
2019-04-23T20:01:21.053Z,15.34
2019-04-23T20:03:55.978Z,15.38
2019-04-23T20:06:40.581Z,15.25
2019-04-23T20:13:55.558Z,15.04
2019-04-23T20:16:38.377Z,14.85
2019-04-23T20:19:04.906Z,14.99
2019-04-23T20:21:49.048Z,14.82
2019-04-23T20:24:21.563Z,14.72
2019-04-23T20:26:42.622Z,15.09
2019-04-23T20:37:01.942Z,14.56
2019-04-23T20:39:49.115Z,14.54
2019-04-23T20:52:29.204Z,14.58
2019-04-23T20:57:56.370Z,14.50
2019-04-23T21:00:32.602Z,14.54
2019-04-23T21:03:25.826Z,14.42
2019-04-23T21:05:27.895Z,14.31
2019-04-23T21:08:14.185Z,14.38
2019-04-23T21:15:45.596Z,14.20
2019-04-23T21:18:25.684Z,14.20
2019-04-23T21:20:48.865Z,14.22
2019-04-23T21:23:22.968Z,14.13
2019-04-23T21:25:52.586Z,14.15
2019-04-23T21:33:49.856Z,13.91
2019-04-23T21:36:39.905Z,13.90
2019-04-23T21:39:40.704Z,14.07
2019-04-23T21:42:14.128Z,14.09
2019-04-23T21:44:40.514Z,13.91
2019-04-23T21:47:09.098Z,14.01
2019-04-23T21:50:03.052Z,14.11
2019-04-23T21:52:17.982Z,14.07
2019-04-23T21:54:57.049Z,14.00
2019-04-23T21:57:32.475Z,13.97
2019-04-23T21:59:55.441Z,13.81
2019-04-23T22:02:27.709Z,13.85
2019-04-23T22:05:07.379Z,13.86
2019-04-23T22:07:50.127Z,13.78
2019-04-23T22:10:05.914Z,13.96
2019-04-23T22:12:48.802Z,13.76
2019-04-23T22:15:06.875Z,13.78
2019-04-23T22:17:44.600Z,13.71
2019-04-23T22:20:19.680Z,13.73
2019-04-23T22:22:56.926Z,13.70
2019-04-23T22:25:18.117Z,13.44
2019-04-23T22:27:54.805Z,13.35
2019-04-23T22:35:34.519Z,13.23
2019-04-23T22:38:09.753Z,13.24
2019-04-23T22:40:34.997Z,13.07
2019-04-23T22:45:44.379Z,13.05
2019-04-23T22:48:06.898Z,12.95
2019-04-23T22:53:20.543Z,13.11
2019-04-23T22:58:46.046Z,13.20
2019-04-23T23:01:23.610Z,13.14
2019-04-23T23:03:59.574Z,13.21
2019-04-23T23:06:43.484Z,12.93
2019-04-23T23:11:34.932Z,12.93
2019-04-23T23:14:35.285Z,12.84
2019-04-23T23:16:39.317Z,12.87
2019-04-23T23:19:21.765Z,12.91
2019-04-23T23:22:03.387Z,12.70
2019-04-23T23:24:13.606Z,12.70
2019-04-23T23:29:46.601Z,12.77
2019-04-23T23:34:30.508Z,12.64
2019-04-23T23:37:00.282Z,12.74
2019-04-23T23:39:29.407Z,12.64
2019-04-23T23:42:02.809Z,12.58
2019-04-23T23:44:44.568Z,12.49
2019-04-23T23:47:07.292Z,12.52
2019-04-23T23:49:48.426Z,12.41
2019-04-23T23:54:48.670Z,12.56
